sensor_id;sensor_type;location;lat;lon;timestamp;P1;durP1;ratioP1;P2;durP2;ratioP2
47575;SDS011;33304;52.456;13.328;2022-09-09T00:00:46;5.70;;;4.07;;
47575;SDS011;33304;52.456;13.328;2022-09-09T00:03:16;6.63;;;4.07;;
47575;SDS011;33304;52.456;13.328;2022-09-09T00:05:47;4.87;;;3.60;;
47575;SDS011;33304;52.456;13.328;2022-09-09T00:08:20;3.57;;;3.23;;
47575;SDS011;33304;52.456;13.328;2022-09-09T00:10:52;4.60;;;3.47;;
47575;SDS011;33304;52.456;13.328;2022-09-09T00:13:26;5.37;;;3.80;;
47575;SDS011;33304;52.456;13.328;2022-09-09T00:16:02;6.33;;;3.40;;
47575;SDS011;33304;52.456;13.328;2022-09-09T00:18:44;3.67;;;3.27;;
47575;SDS011;33304;52.456;13.328;2022-09-09T00:21:18;8.60;;;4.00;;
47575;SDS011;33304;52.456;13.328;2022-09-09T00:23:53;4.67;;;3.77;;
47575;SDS011;33304;52.456;13.328;2022-09-09T00:26:22;4.10;;;3.70;;
47575;SDS011;33304;52.456;13.328;2022-09-09T00:29:00;9.20;;;4.13;;
47575;SDS011;33304;52.456;13.328;2022-09-09T00:31:36;5.23;;;4.23;;
47575;SDS011;33304;52.456;13.328;2022-09-09T00:34:05;5.70;;;4.23;;
47575;SDS011;33304;52.456;13.328;2022-09-09T00:36:38;5.00;;;4.50;;
47575;SDS011;33304;52.456;13.328;2022-09-09T00:39:08;6.10;;;5.00;;
47575;SDS011;33304;52.456;13.328;2022-09-09T00:41:44;5.80;;;4.87;;
47575;SDS011;33304;52.456;13.328;2022-09-09T00:44:20;5.40;;;4.60;;
47575;SDS011;33304;52.456;13.328;2022-09-09T00:47:01;4.87;;;4.37;;
47575;SDS011;33304;52.456;13.328;2022-09-09T00:49:41;6.00;;;4.13;;
47575;SDS011;33304;52.456;13.328;2022-09-09T00:52:19;5.60;;;4.97;;
47575;SDS011;33304;52.456;13.328;2022-09-09T00:54:59;5.07;;;4.10;;
47575;SDS011;33304;52.456;13.328;2022-09-09T00:57:32;6.27;;;4.40;;
47575;SDS011;33304;52.456;13.328;2022-09-09T01:00:16;4.70;;;4.23;;
47575;SDS011;33304;52.456;13.328;2022-09-09T01:02:53;5.73;;;5.07;;
47575;SDS011;33304;52.456;13.328;2022-09-09T01:05:30;7.90;;;4.90;;
47575;SDS011;33304;52.456;13.328;2022-09-09T01:08:05;5.20;;;4.23;;
47575;SDS011;33304;52.456;13.328;2022-09-09T01:10:47;5.80;;;4.70;;
47575;SDS011;33304;52.456;13.328;2022-09-09T01:13:22;5.93;;;4.33;;
47575;SDS011;33304;52.456;13.328;2022-09-09T01:15:53;4.90;;;4.33;;
47575;SDS011;33304;52.456;13.328;2022-09-09T01:18:23;5.73;;;4.30;;
47575;SDS011;33304;52.456;13.328;2022-09-09T01:20:55;5.60;;;4.87;;
47575;SDS011;33304;52.456;13.328;2022-09-09T01:23:35;4.97;;;4.13;;
47575;SDS011;33304;52.456;13.328;2022-09-09T01:26:35;5.87;;;4.27;;
47575;SDS011;33304;52.456;13.328;2022-09-09T01:29:09;5.57;;;4.07;;
47575;SDS011;33304;52.456;13.328;2022-09-09T01:31:41;4.70;;;3.80;;
47575;SDS011;33304;52.456;13.328;2022-09-09T01:34:18;6.17;;;4.70;;
47575;SDS011;33304;52.456;13.328;2022-09-09T01:36:47;5.43;;;4.40;;
47575;SDS011;33304;52.456;13.328;2022-09-09T01:39:20;5.50;;;4.30;;
47575;SDS011;33304;52.456;13.328;2022-09-09T01:41:57;6.23;;;4.37;;
47575;SDS011;33304;52.456;13.328;2022-09-09T01:44:24;6.50;;;4.27;;
47575;SDS011;33304;52.456;13.328;2022-09-09T01:46:53;5.70;;;4.50;;
47575;SDS011;33304;52.456;13.328;2022-09-09T01:49:21;4.47;;;3.93;;
47575;SDS011;33304;52.456;13.328;2022-09-09T01:51:50;5.07;;;3.93;;
47575;SDS011;33304;52.456;13.328;2022-09-09T01:54:25;5.10;;;4.17;;
47575;SDS011;33304;52.456;13.328;2022-09-09T01:57:01;4.80;;;4.17;;
47575;SDS011;33304;52.456;13.328;2022-09-09T02:02:42;5.43;;;4.50;;
47575;SDS011;33304;52.456;13.328;2022-09-09T02:05:22;5.07;;;4.30;;
47575;SDS011;33304;52.456;13.328;2022-09-09T02:08:00;4.93;;;4.10;;
47575;SDS011;33304;52.456;13.328;2022-09-09T02:10:42;5.57;;;4.97;;
47575;SDS011;33304;52.456;13.328;2022-09-09T02:13:27;5.27;;;4.30;;
47575;SDS011;33304;52.456;13.328;2022-09-09T02:15:56;6.07;;;3.80;;
47575;SDS011;33304;52.456;13.328;2022-09-09T02:18:29;5.33;;;4.03;;
47575;SDS011;33304;52.456;13.328;2022-09-09T02:21:01;5.87;;;4.43;;
47575;SDS011;33304;52.456;13.328;2022-09-09T02:23:29;5.00;;;4.47;;
47575;SDS011;33304;52.456;13.328;2022-09-09T02:25:59;5.17;;;4.50;;
47575;SDS011;33304;52.456;13.328;2022-09-09T02:28:31;5.60;;;4.57;;
47575;SDS011;33304;52.456;13.328;2022-09-09T02:30:59;5.70;;;4.13;;
47575;SDS011;33304;52.456;13.328;2022-09-09T02:33:35;5.30;;;4.30;;
47575;SDS011;33304;52.456;13.328;2022-09-09T02:36:07;5.07;;;4.30;;
47575;SDS011;33304;52.456;13.328;2022-09-09T02:38:38;5.10;;;4.00;;
47575;SDS011;33304;52.456;13.328;2022-09-09T02:41:14;7.17;;;4.53;;
47575;SDS011;33304;52.456;13.328;2022-09-09T02:43:43;5.57;;;4.43;;
47575;SDS011;33304;52.456;13.328;2022-09-09T02:46:18;5.43;;;4.57;;
47575;SDS011;33304;52.456;13.328;2022-09-09T02:48:59;7.10;;;4.63;;
47575;SDS011;33304;52.456;13.328;2022-09-09T02:51:35;4.87;;;4.07;;
47575;SDS011;33304;52.456;13.328;2022-09-09T02:54:15;7.13;;;5.00;;
47575;SDS011;33304;52.456;13.328;2022-09-09T02:56:49;5.23;;;3.83;;
47575;SDS011;33304;52.456;13.328;2022-09-09T02:59:24;5.47;;;4.33;;
47575;SDS011;33304;52.456;13.328;2022-09-09T03:01:53;4.67;;;3.57;;
47575;SDS011;33304;52.456;13.328;2022-09-09T03:04:21;6.20;;;4.90;;
47575;SDS011;33304;52.456;13.328;2022-09-09T03:06:51;6.03;;;4.30;;
47575;SDS011;33304;52.456;13.328;2022-09-09T03:09:20;6.00;;;4.70;;
47575;SDS011;33304;52.456;13.328;2022-09-09T03:11:48;6.13;;;4.40;;
47575;SDS011;33304;52.456;13.328;2022-09-09T03:14:17;7.27;;;4.80;;
47575;SDS011;33304;52.456;13.328;2022-09-09T03:16:48;5.83;;;4.37;;
47575;SDS011;33304;52.456;13.328;2022-09-09T03:19:15;6.77;;;4.00;;
47575;SDS011;33304;52.456;13.328;2022-09-09T03:21:44;5.57;;;3.87;;
47575;SDS011;33304;52.456;13.328;2022-09-09T03:24:11;5.17;;;4.67;;
47575;SDS011;33304;52.456;13.328;2022-09-09T03:26:39;6.20;;;4.70;;
47575;SDS011;33304;52.456;13.328;2022-09-09T03:29:11;5.93;;;4.80;;
47575;SDS011;33304;52.456;13.328;2022-09-09T03:31:40;5.27;;;4.10;;
47575;SDS011;33304;52.456;13.328;2022-09-09T03:34:10;7.73;;;4.53;;
47575;SDS011;33304;52.456;13.328;2022-09-09T03:36:38;7.03;;;4.17;;
47575;SDS011;33304;52.456;13.328;2022-09-09T03:39:06;4.80;;;4.07;;
47575;SDS011;33304;52.456;13.328;2022-09-09T03:41:34;5.50;;;4.53;;
47575;SDS011;33304;52.456;13.328;2022-09-09T03:44:03;5.30;;;3.60;;
47575;SDS011;33304;52.456;13.328;2022-09-09T03:46:36;5.67;;;4.37;;
47575;SDS011;33304;52.456;13.328;2022-09-09T03:49:03;5.10;;;4.13;;
47575;SDS011;33304;52.456;13.328;2022-09-09T03:51:33;6.13;;;4.60;;
47575;SDS011;33304;52.456;13.328;2022-09-09T03:54:01;6.07;;;4.60;;
47575;SDS011;33304;52.456;13.328;2022-09-09T03:56:30;4.97;;;4.03;;
47575;SDS011;33304;52.456;13.328;2022-09-09T03:58:58;5.20;;;3.67;;
47575;SDS011;33304;52.456;13.328;2022-09-09T04:01:26;4.97;;;4.17;;
47575;SDS011;33304;52.456;13.328;2022-09-09T04:03:54;9.37;;;3.50;;
47575;SDS011;33304;52.456;13.328;2022-09-09T04:06:24;4.83;;;3.80;;
47575;SDS011;33304;52.456;13.328;2022-09-09T04:08:53;5.00;;;3.93;;
47575;SDS011;33304;52.456;13.328;2022-09-09T04:11:21;5.00;;;3.80;;
47575;SDS011;33304;52.456;13.328;2022-09-09T04:13:51;5.83;;;4.60;;
47575;SDS011;33304;52.456;13.328;2022-09-09T04:16:18;5.10;;;4.03;;
47575;SDS011;33304;52.456;13.328;2022-09-09T04:18:46;6.27;;;4.10;;
47575;SDS011;33304;52.456;13.328;2022-09-09T04:21:15;5.00;;;3.50;;
47575;SDS011;33304;52.456;13.328;2022-09-09T04:23:43;5.57;;;3.60;;
47575;SDS011;33304;52.456;13.328;2022-09-09T04:26:11;4.40;;;3.53;;
47575;SDS011;33304;52.456;13.328;2022-09-09T04:28:39;5.03;;;3.87;;
47575;SDS011;33304;52.456;13.328;2022-09-09T04:31:14;5.67;;;4.00;;
47575;SDS011;33304;52.456;13.328;2022-09-09T04:33:45;4.90;;;4.00;;
47575;SDS011;33304;52.456;13.328;2022-09-09T04:36:13;5.07;;;4.13;;
47575;SDS011;33304;52.456;13.328;2022-09-09T04:38:41;4.10;;;3.17;;
47575;SDS011;33304;52.456;13.328;2022-09-09T04:41:11;4.67;;;3.60;;
47575;SDS011;33304;52.456;13.328;2022-09-09T04:43:42;4.93;;;4.13;;
47575;SDS011;33304;52.456;13.328;2022-09-09T04:46:09;4.40;;;3.83;;
47575;SDS011;33304;52.456;13.328;2022-09-09T04:48:36;4.33;;;3.67;;
47575;SDS011;33304;52.456;13.328;2022-09-09T04:51:06;5.17;;;3.80;;
47575;SDS011;33304;52.456;13.328;2022-09-09T04:53:36;7.27;;;3.50;;
47575;SDS011;33304;52.456;13.328;2022-09-09T04:56:04;3.97;;;3.50;;
47575;SDS011;33304;52.456;13.328;2022-09-09T04:58:38;5.00;;;3.63;;
47575;SDS011;33304;52.456;13.328;2022-09-09T05:01:08;4.67;;;3.67;;
47575;SDS011;33304;52.456;13.328;2022-09-09T05:03:39;4.43;;;3.57;;
47575;SDS011;33304;52.456;13.328;2022-09-09T05:06:09;7.27;;;3.63;;
47575;SDS011;33304;52.456;13.328;2022-09-09T05:08:38;7.80;;;4.13;;
47575;SDS011;33304;52.456;13.328;2022-09-09T05:11:12;5.40;;;3.37;;
47575;SDS011;33304;52.456;13.328;2022-09-09T05:13:42;5.37;;;3.93;;
47575;SDS011;33304;52.456;13.328;2022-09-09T05:16:10;4.67;;;4.03;;
47575;SDS011;33304;52.456;13.328;2022-09-09T05:18:37;4.33;;;3.80;;
47575;SDS011;33304;52.456;13.328;2022-09-09T05:21:05;4.03;;;3.00;;
47575;SDS011;33304;52.456;13.328;2022-09-09T05:23:33;4.03;;;3.40;;
47575;SDS011;33304;52.456;13.328;2022-09-09T05:26:01;4.87;;;3.43;;
47575;SDS011;33304;52.456;13.328;2022-09-09T05:28:29;4.13;;;3.10;;
47575;SDS011;33304;52.456;13.328;2022-09-09T05:30:58;3.50;;;3.13;;
47575;SDS011;33304;52.456;13.328;2022-09-09T05:33:30;3.57;;;3.23;;
47575;SDS011;33304;52.456;13.328;2022-09-09T05:35:59;3.67;;;3.10;;
47575;SDS011;33304;52.456;13.328;2022-09-09T05:38:29;4.57;;;3.37;;
47575;SDS011;33304;52.456;13.328;2022-09-09T05:40:58;3.03;;;2.80;;
47575;SDS011;33304;52.456;13.328;2022-09-09T05:43:25;3.93;;;3.27;;
47575;SDS011;33304;52.456;13.328;2022-09-09T05:46:02;3.73;;;3.23;;
47575;SDS011;33304;52.456;13.328;2022-09-09T05:48:32;3.87;;;3.43;;
47575;SDS011;33304;52.456;13.328;2022-09-09T05:51:01;4.00;;;3.60;;
47575;SDS011;33304;52.456;13.328;2022-09-09T05:53:29;5.40;;;3.03;;
47575;SDS011;33304;52.456;13.328;2022-09-09T05:56:00;4.10;;;3.27;;
47575;SDS011;33304;52.456;13.328;2022-09-09T05:58:31;7.37;;;4.30;;
47575;SDS011;33304;52.456;13.328;2022-09-09T06:01:03;13.53;;;5.10;;
47575;SDS011;33304;52.456;13.328;2022-09-09T06:03:32;4.20;;;2.60;;
47575;SDS011;33304;52.456;13.328;2022-09-09T06:06:01;3.73;;;2.60;;
47575;SDS011;33304;52.456;13.328;2022-09-09T06:08:31;4.53;;;3.03;;
47575;SDS011;33304;52.456;13.328;2022-09-09T06:11:02;3.50;;;2.83;;
47575;SDS011;33304;52.456;13.328;2022-09-09T06:13:30;3.70;;;2.80;;
47575;SDS011;33304;52.456;13.328;2022-09-09T06:15:58;3.73;;;2.73;;
47575;SDS011;33304;52.456;13.328;2022-09-09T06:18:28;4.50;;;2.70;;
47575;SDS011;33304;52.456;13.328;2022-09-09T06:20:56;2.53;;;2.33;;
47575;SDS011;33304;52.456;13.328;2022-09-09T06:23:25;2.60;;;2.13;;
47575;SDS011;33304;52.456;13.328;2022-09-09T06:26:00;5.53;;;2.50;;
47575;SDS011;33304;52.456;13.328;2022-09-09T06:28:31;3.60;;;2.13;;
47575;SDS011;33304;52.456;13.328;2022-09-09T06:30:58;2.87;;;2.63;;
47575;SDS011;33304;52.456;13.328;2022-09-09T06:33:31;3.13;;;2.40;;
47575;SDS011;33304;52.456;13.328;2022-09-09T06:36:00;3.13;;;1.90;;
47575;SDS011;33304;52.456;13.328;2022-09-09T06:38:29;2.93;;;2.00;;
47575;SDS011;33304;52.456;13.328;2022-09-09T06:40:57;2.23;;;1.90;;
47575;SDS011;33304;52.456;13.328;2022-09-09T06:43:25;2.93;;;2.23;;
47575;SDS011;33304;52.456;13.328;2022-09-09T06:45:55;4.50;;;2.53;;
47575;SDS011;33304;52.456;13.328;2022-09-09T06:48:22;2.70;;;2.20;;
47575;SDS011;33304;52.456;13.328;2022-09-09T06:50:52;2.23;;;1.73;;
47575;SDS011;33304;52.456;13.328;2022-09-09T06:53:28;2.40;;;1.93;;
47575;SDS011;33304;52.456;13.328;2022-09-09T06:55:55;2.10;;;1.70;;
47575;SDS011;33304;52.456;13.328;2022-09-09T06:58:22;2.87;;;2.00;;
47575;SDS011;33304;52.456;13.328;2022-09-09T07:00:50;3.90;;;1.97;;
47575;SDS011;33304;52.456;13.328;2022-09-09T07:03:17;3.67;;;1.97;;
47575;SDS011;33304;52.456;13.328;2022-09-09T07:05:54;2.17;;;1.50;;
47575;SDS011;33304;52.456;13.328;2022-09-09T07:08:23;3.27;;;2.00;;
47575;SDS011;33304;52.456;13.328;2022-09-09T07:10:50;3.43;;;1.77;;
47575;SDS011;33304;52.456;13.328;2022-09-09T07:13:19;3.07;;;1.97;;
47575;SDS011;33304;52.456;13.328;2022-09-09T07:15:51;2.17;;;1.90;;
47575;SDS011;33304;52.456;13.328;2022-09-09T07:18:18;2.13;;;1.63;;
47575;SDS011;33304;52.456;13.328;2022-09-09T07:20:52;4.93;;;1.50;;
47575;SDS011;33304;52.456;13.328;2022-09-09T07:23:22;4.13;;;1.77;;
47575;SDS011;33304;52.456;13.328;2022-09-09T07:25:50;1.50;;;1.27;;
47575;SDS011;33304;52.456;13.328;2022-09-09T07:28:18;2.73;;;1.50;;
47575;SDS011;33304;52.456;13.328;2022-09-09T07:30:52;1.53;;;1.10;;
47575;SDS011;33304;52.456;13.328;2022-09-09T07:33:20;2.60;;;1.47;;
47575;SDS011;33304;52.456;13.328;2022-09-09T07:35:47;3.20;;;1.40;;
47575;SDS011;33304;52.456;13.328;2022-09-09T07:38:16;1.37;;;1.27;;
47575;SDS011;33304;52.456;13.328;2022-09-09T07:40:44;1.67;;;1.27;;
47575;SDS011;33304;52.456;13.328;2022-09-09T07:43:11;2.60;;;1.00;;
47575;SDS011;33304;52.456;13.328;2022-09-09T07:45:39;4.20;;;1.40;;
47575;SDS011;33304;52.456;13.328;2022-09-09T07:48:08;2.83;;;1.30;;
47575;SDS011;33304;52.456;13.328;2022-09-09T07:50:36;1.27;;;1.10;;
47575;SDS011;33304;52.456;13.328;2022-09-09T07:53:04;3.60;;;1.23;;
47575;SDS011;33304;52.456;13.328;2022-09-09T07:55:33;1.63;;;0.90;;
47575;SDS011;33304;52.456;13.328;2022-09-09T07:58:00;2.30;;;1.10;;
47575;SDS011;33304;52.456;13.328;2022-09-09T08:00:28;1.50;;;0.93;;
47575;SDS011;33304;52.456;13.328;2022-09-09T08:02:57;2.27;;;1.20;;
47575;SDS011;33304;52.456;13.328;2022-09-09T08:05:27;1.27;;;1.10;;
47575;SDS011;33304;52.456;13.328;2022-09-09T08:07:54;1.17;;;0.80;;
47575;SDS011;33304;52.456;13.328;2022-09-09T08:10:22;2.87;;;1.17;;
47575;SDS011;33304;52.456;13.328;2022-09-09T08:12:52;2.00;;;0.83;;
47575;SDS011;33304;52.456;13.328;2022-09-09T08:15:20;2.53;;;0.80;;
47575;SDS011;33304;52.456;13.328;2022-09-09T08:17:47;1.10;;;0.80;;
47575;SDS011;33304;52.456;13.328;2022-09-09T08:20:15;2.40;;;0.73;;
47575;SDS011;33304;52.456;13.328;2022-09-09T08:22:42;2.40;;;0.97;;
47575;SDS011;33304;52.456;13.328;2022-09-09T08:25:09;2.07;;;0.90;;
47575;SDS011;33304;52.456;13.328;2022-09-09T08:27:38;4.00;;;1.07;;
47575;SDS011;33304;52.456;13.328;2022-09-09T08:30:08;1.70;;;0.83;;
47575;SDS011;33304;52.456;13.328;2022-09-09T08:32:36;1.53;;;0.90;;
47575;SDS011;33304;52.456;13.328;2022-09-09T08:35:03;1.20;;;0.80;;
47575;SDS011;33304;52.456;13.328;2022-09-09T08:37:32;0.80;;;0.70;;
47575;SDS011;33304;52.456;13.328;2022-09-09T08:39:59;2.67;;;1.50;;
47575;SDS011;33304;52.456;13.328;2022-09-09T08:42:35;1.80;;;1.20;;
47575;SDS011;33304;52.456;13.328;2022-09-09T08:45:12;1.53;;;0.60;;
47575;SDS011;33304;52.456;13.328;2022-09-09T08:47:49;0.83;;;0.70;;
47575;SDS011;33304;52.456;13.328;2022-09-09T08:50:24;2.03;;;1.03;;
47575;SDS011;33304;52.456;13.328;2022-09-09T08:53:02;0.70;;;0.70;;
47575;SDS011;33304;52.456;13.328;2022-09-09T08:55:35;1.63;;;0.67;;
47575;SDS011;33304;52.456;13.328;2022-09-09T08:58:12;1.53;;;1.00;;
47575;SDS011;33304;52.456;13.328;2022-09-09T09:00:47;1.20;;;0.70;;
47575;SDS011;33304;52.456;13.328;2022-09-09T09:03:31;1.27;;;1.00;;
47575;SDS011;33304;52.456;13.328;2022-09-09T09:06:06;3.27;;;0.90;;
47575;SDS011;33304;52.456;13.328;2022-09-09T09:08:47;0.87;;;0.57;;
47575;SDS011;33304;52.456;13.328;2022-09-09T09:11:22;0.90;;;0.70;;
47575;SDS011;33304;52.456;13.328;2022-09-09T09:13:51;1.20;;;0.60;;
47575;SDS011;33304;52.456;13.328;2022-09-09T09:16:26;1.17;;;0.70;;
47575;SDS011;33304;52.456;13.328;2022-09-09T09:18:58;0.90;;;0.50;;
47575;SDS011;33304;52.456;13.328;2022-09-09T09:21:32;1.40;;;1.00;;
47575;SDS011;33304;52.456;13.328;2022-09-09T09:24:06;2.77;;;0.87;;
47575;SDS011;33304;52.456;13.328;2022-09-09T09:26:42;1.10;;;0.80;;
47575;SDS011;33304;52.456;13.328;2022-09-09T09:29:11;2.50;;;0.87;;
47575;SDS011;33304;52.456;13.328;2022-09-09T09:31:43;1.70;;;0.93;;
47575;SDS011;33304;52.456;13.328;2022-09-09T09:34:13;1.47;;;0.77;;
47575;SDS011;33304;52.456;13.328;2022-09-09T09:36:41;2.77;;;0.70;;
47575;SDS011;33304;52.456;13.328;2022-09-09T09:39:22;1.10;;;0.60;;
47575;SDS011;33304;52.456;13.328;2022-09-09T09:41:51;2.77;;;1.13;;
47575;SDS011;33304;52.456;13.328;2022-09-09T09:44:25;1.50;;;0.60;;
47575;SDS011;33304;52.456;13.328;2022-09-09T09:47:06;1.40;;;0.63;;
47575;SDS011;33304;52.456;13.328;2022-09-09T09:49:34;0.77;;;0.70;;
47575;SDS011;33304;52.456;13.328;2022-09-09T09:52:02;2.57;;;0.43;;
47575;SDS011;33304;52.456;13.328;2022-09-09T09:54:32;1.73;;;0.77;;
47575;SDS011;33304;52.456;13.328;2022-09-09T09:57:08;0.90;;;0.57;;
47575;SDS011;33304;52.456;13.328;2022-09-09T09:59:37;1.80;;;0.87;;
47575;SDS011;33304;52.456;13.328;2022-09-09T10:02:15;1.87;;;0.60;;
47575;SDS011;33304;52.456;13.328;2022-09-09T10:04:48;0.70;;;0.70;;
47575;SDS011;33304;52.456;13.328;2022-09-09T10:07:26;1.47;;;0.60;;
47575;SDS011;33304;52.456;13.328;2022-09-09T10:09:55;1.30;;;0.70;;
47575;SDS011;33304;52.456;13.328;2022-09-09T10:12:30;0.77;;;0.40;;
47575;SDS011;33304;52.456;13.328;2022-09-09T10:15:07;1.77;;;0.63;;
47575;SDS011;33304;52.456;13.328;2022-09-09T10:17:52;2.63;;;0.73;;
47575;SDS011;33304;52.456;13.328;2022-09-09T10:20:28;1.70;;;0.83;;
47575;SDS011;33304;52.456;13.328;2022-09-09T10:23:08;3.63;;;0.73;;
47575;SDS011;33304;52.456;13.328;2022-09-09T10:25:49;1.23;;;0.60;;
47575;SDS011;33304;52.456;13.328;2022-09-09T10:28:29;1.27;;;0.50;;
47575;SDS011;33304;52.456;13.328;2022-09-09T10:31:16;1.50;;;0.40;;
47575;SDS011;33304;52.456;13.328;2022-09-09T10:33:51;1.03;;;0.53;;
47575;SDS011;33304;52.456;13.328;2022-09-09T10:36:24;2.33;;;0.60;;
47575;SDS011;33304;52.456;13.328;2022-09-09T10:38:56;0.70;;;0.43;;
47575;SDS011;33304;52.456;13.328;2022-09-09T10:41:37;2.40;;;0.60;;
47575;SDS011;33304;52.456;13.328;2022-09-09T10:44:20;1.13;;;0.50;;
47575;SDS011;33304;52.456;13.328;2022-09-09T10:46:58;2.27;;;0.70;;
47575;SDS011;33304;52.456;13.328;2022-09-09T10:49:52;0.40;;;0.37;;
47575;SDS011;33304;52.456;13.328;2022-09-09T10:52:30;3.70;;;0.83;;
47575;SDS011;33304;52.456;13.328;2022-09-09T10:55:07;1.80;;;0.50;;
47575;SDS011;33304;52.456;13.328;2022-09-09T10:57:40;1.20;;;0.50;;
47575;SDS011;33304;52.456;13.328;2022-09-09T11:00:14;0.57;;;0.47;;
47575;SDS011;33304;52.456;13.328;2022-09-09T11:02:45;1.17;;;0.60;;
47575;SDS011;33304;52.456;13.328;2022-09-09T11:05:19;0.37;;;0.37;;
47575;SDS011;33304;52.456;13.328;2022-09-09T11:07:49;0.80;;;0.50;;
47575;SDS011;33304;52.456;13.328;2022-09-09T11:10:22;0.83;;;0.50;;
47575;SDS011;33304;52.456;13.328;2022-09-09T11:12:53;1.60;;;0.43;;
47575;SDS011;33304;52.456;13.328;2022-09-09T11:15:28;0.60;;;0.40;;
47575;SDS011;33304;52.456;13.328;2022-09-09T11:18:01;0.90;;;0.37;;
47575;SDS011;33304;52.456;13.328;2022-09-09T11:20:32;0.90;;;0.40;;
47575;SDS011;33304;52.456;13.328;2022-09-09T11:23:01;0.83;;;0.50;;
47575;SDS011;33304;52.456;13.328;2022-09-09T11:25:32;1.77;;;0.50;;
47575;SDS011;33304;52.456;13.328;2022-09-09T11:28:06;1.07;;;0.33;;
47575;SDS011;33304;52.456;13.328;2022-09-09T11:30:48;1.23;;;0.47;;
47575;SDS011;33304;52.456;13.328;2022-09-09T11:33:49;0.30;;;0.30;;
47575;SDS011;33304;52.456;13.328;2022-09-09T11:36:59;1.43;;;0.63;;
47575;SDS011;33304;52.456;13.328;2022-09-09T11:39:37;0.37;;;0.30;;
47575;SDS011;33304;52.456;13.328;2022-09-09T11:42:17;0.80;;;0.40;;
47575;SDS011;33304;52.456;13.328;2022-09-09T11:44:46;0.60;;;0.20;;
47575;SDS011;33304;52.456;13.328;2022-09-09T11:47:21;1.00;;;0.50;;
47575;SDS011;33304;52.456;13.328;2022-09-09T11:49:54;3.83;;;0.60;;
47575;SDS011;33304;52.456;13.328;2022-09-09T11:52:24;1.60;;;0.63;;
47575;SDS011;33304;52.456;13.328;2022-09-09T11:55:08;1.20;;;0.60;;
47575;SDS011;33304;52.456;13.328;2022-09-09T11:57:37;0.83;;;0.37;;
47575;SDS011;33304;52.456;13.328;2022-09-09T12:00:05;0.50;;;0.30;;
47575;SDS011;33304;52.456;13.328;2022-09-09T12:02:47;1.70;;;0.60;;
47575;SDS011;33304;52.456;13.328;2022-09-09T12:05:16;2.13;;;0.63;;
47575;SDS011;33304;52.456;13.328;2022-09-09T12:07:48;0.57;;;0.30;;
47575;SDS011;33304;52.456;13.328;2022-09-09T12:10:21;1.65;;;0.40;;
47575;SDS011;33304;52.456;13.328;2022-09-09T12:12:51;1.23;;;0.30;;
47575;SDS011;33304;52.456;13.328;2022-09-09T12:15:20;0.43;;;0.30;;
47575;SDS011;33304;52.456;13.328;2022-09-09T12:17:51;1.90;;;0.30;;
47575;SDS011;33304;52.456;13.328;2022-09-09T12:20:20;0.47;;;0.30;;
47575;SDS011;33304;52.456;13.328;2022-09-09T12:23:06;0.93;;;0.28;;
47575;SDS011;33304;52.456;13.328;2022-09-09T12:25:52;1.27;;;0.32;;
47575;SDS011;33304;52.456;13.328;2022-09-09T12:28:26;0.83;;;0.20;;
47575;SDS011;33304;52.456;13.328;2022-09-09T12:31:02;0.30;;;0.30;;
47575;SDS011;33304;52.456;13.328;2022-09-09T12:33:34;1.67;;;0.40;;
47575;SDS011;33304;52.456;13.328;2022-09-09T12:36:03;2.63;;;0.40;;
47575;SDS011;33304;52.456;13.328;2022-09-09T12:38:34;0.30;;;0.30;;
47575;SDS011;33304;52.456;13.328;2022-09-09T12:41:03;1.73;;;0.60;;
47575;SDS011;33304;52.456;13.328;2022-09-09T12:43:31;0.70;;;0.40;;
47575;SDS011;33304;52.456;13.328;2022-09-09T12:45:59;1.70;;;0.30;;
47575;SDS011;33304;52.456;13.328;2022-09-09T12:48:31;0.30;;;0.30;;
47575;SDS011;33304;52.456;13.328;2022-09-09T12:51:02;0.93;;;0.40;;
47575;SDS011;33304;52.456;13.328;2022-09-09T12:53:32;1.47;;;0.50;;
47575;SDS011;33304;52.456;13.328;2022-09-09T12:56:03;2.20;;;0.60;;
47575;SDS011;33304;52.456;13.328;2022-09-09T12:58:33;1.30;;;0.50;;
47575;SDS011;33304;52.456;13.328;2022-09-09T13:01:02;2.63;;;0.40;;
47575;SDS011;33304;52.456;13.328;2022-09-09T13:03:32;0.50;;;0.30;;
47575;SDS011;33304;52.456;13.328;2022-09-09T13:06:10;0.60;;;0.47;;
47575;SDS011;33304;52.456;13.328;2022-09-09T13:08:39;1.07;;;0.20;;
47575;SDS011;33304;52.456;13.328;2022-09-09T13:11:07;0.87;;;0.20;;
47575;SDS011;33304;52.456;13.328;2022-09-09T13:13:41;0.70;;;0.40;;
47575;SDS011;33304;52.456;13.328;2022-09-09T13:16:18;1.10;;;0.40;;
47575;SDS011;33304;52.456;13.328;2022-09-09T13:18:47;0.67;;;0.43;;
47575;SDS011;33304;52.456;13.328;2022-09-09T13:21:14;2.60;;;0.57;;
47575;SDS011;33304;52.456;13.328;2022-09-09T13:23:47;0.73;;;0.27;;
47575;SDS011;33304;52.456;13.328;2022-09-09T13:26:20;2.83;;;0.67;;
47575;SDS011;33304;52.456;13.328;2022-09-09T13:28:49;1.13;;;0.40;;
47575;SDS011;33304;52.456;13.328;2022-09-09T13:31:22;1.83;;;0.40;;
47575;SDS011;33304;52.456;13.328;2022-09-09T13:33:53;4.30;;;0.50;;
47575;SDS011;33304;52.456;13.328;2022-09-09T13:36:27;1.83;;;0.43;;
47575;SDS011;33304;52.456;13.328;2022-09-09T13:38:59;1.75;;;0.60;;
47575;SDS011;33304;52.456;13.328;2022-09-09T13:41:28;1.17;;;0.30;;
47575;SDS011;33304;52.456;13.328;2022-09-09T13:43:58;2.80;;;0.47;;
47575;SDS011;33304;52.456;13.328;2022-09-09T13:46:28;1.15;;;0.30;;
47575;SDS011;33304;52.456;13.328;2022-09-09T13:49:00;0.80;;;0.50;;
47575;SDS011;33304;52.456;13.328;2022-09-09T13:51:33;0.73;;;0.30;;
47575;SDS011;33304;52.456;13.328;2022-09-09T13:54:04;4.13;;;0.45;;
47575;SDS011;33304;52.456;13.328;2022-09-09T13:56:33;1.75;;;0.45;;
47575;SDS011;33304;52.456;13.328;2022-09-09T13:59:00;1.70;;;0.50;;
47575;SDS011;33304;52.456;13.328;2022-09-09T14:01:28;1.77;;;0.80;;
47575;SDS011;33304;52.456;13.328;2022-09-09T14:03:56;0.95;;;0.40;;
47575;SDS011;33304;52.456;13.328;2022-09-09T14:06:24;1.00;;;0.50;;
47575;SDS011;33304;52.456;13.328;2022-09-09T14:08:51;2.83;;;0.60;;
47575;SDS011;33304;52.456;13.328;2022-09-09T14:11:21;1.85;;;0.50;;
47575;SDS011;33304;52.456;13.328;2022-09-09T14:13:48;0.90;;;0.55;;
47575;SDS011;33304;52.456;13.328;2022-09-09T14:16:16;1.13;;;0.30;;
47575;SDS011;33304;52.456;13.328;2022-09-09T14:18:44;1.70;;;0.70;;
47575;SDS011;33304;52.456;13.328;2022-09-09T14:21:11;0.88;;;0.35;;
47575;SDS011;33304;52.456;13.328;2022-09-09T14:23:38;1.60;;;0.40;;
47575;SDS011;33304;52.456;13.328;2022-09-09T14:26:06;2.55;;;0.47;;
47575;SDS011;33304;52.456;13.328;2022-09-09T14:28:35;0.63;;;0.28;;
47575;SDS011;33304;52.456;13.328;2022-09-09T14:31:03;2.30;;;0.88;;
47575;SDS011;33304;52.456;13.328;2022-09-09T14:33:31;0.90;;;0.47;;
47575;SDS011;33304;52.456;13.328;2022-09-09T14:35:58;0.80;;;0.30;;
47575;SDS011;33304;52.456;13.328;2022-09-09T14:38:28;1.13;;;0.40;;
47575;SDS011;33304;52.456;13.328;2022-09-09T14:40:56;1.05;;;0.40;;
47575;SDS011;33304;52.456;13.328;2022-09-09T14:43:24;0.63;;;0.40;;
47575;SDS011;33304;52.456;13.328;2022-09-09T14:45:53;1.52;;;0.55;;
47575;SDS011;33304;52.456;13.328;2022-09-09T14:48:21;0.70;;;0.50;;
47575;SDS011;33304;52.456;13.328;2022-09-09T14:50:48;3.20;;;0.47;;
47575;SDS011;33304;52.456;13.328;2022-09-09T14:53:15;2.37;;;0.40;;
47575;SDS011;33304;52.456;13.328;2022-09-09T14:55:43;1.48;;;0.47;;
47575;SDS011;33304;52.456;13.328;2022-09-09T14:58:12;0.93;;;0.30;;
47575;SDS011;33304;52.456;13.328;2022-09-09T15:00:39;2.27;;;0.40;;
47575;SDS011;33304;52.456;13.328;2022-09-09T15:03:09;0.37;;;0.23;;